createdAt,value
2023-04-25T00:01:54.931Z,16.08
2023-04-25T00:04:19.813Z,17.50
2023-04-25T00:06:44.678Z,19.20
2023-04-25T00:09:12.145Z,17.65
2023-04-25T00:11:36.761Z,16.70
2023-04-25T00:14:03.088Z,14.70
2023-04-25T00:16:27.946Z,14.20
2023-04-25T00:18:54.818Z,12.18
2023-04-25T00:21:20.885Z,11.40
2023-04-25T00:23:46.721Z,12.88
2023-04-25T00:26:13.411Z,12.18
2023-04-25T00:28:38.602Z,11.65
2023-04-25T00:31:03.302Z,11.55
2023-04-25T00:33:28.199Z,10.80
2023-04-25T00:35:52.949Z,11.00
2023-04-25T00:38:17.745Z,10.95
2023-04-25T00:40:44.705Z,11.10
2023-04-25T00:43:11.115Z,9.98
2023-04-25T00:45:41.565Z,10.40
2023-04-25T00:48:07.615Z,10.30
2023-04-25T00:50:32.503Z,10.48
2023-04-25T00:52:57.237Z,9.52
2023-04-25T00:55:22.370Z,9.98
2023-04-25T00:57:47.980Z,9.73
2023-04-25T01:00:16.349Z,9.45
2023-04-25T01:02:43.592Z,9.57
2023-04-25T01:05:08.842Z,9.15
2023-04-25T01:07:33.832Z,10.45
2023-04-25T01:09:58.707Z,10.38
2023-04-25T01:12:23.664Z,8.80
2023-04-25T01:14:49.539Z,9.52
2023-04-25T01:17:16.143Z,9.65
2023-04-25T01:19:41.370Z,9.70
2023-04-25T01:22:07.835Z,8.57
2023-04-25T01:24:33.436Z,8.60
2023-04-25T01:26:58.535Z,8.27
2023-04-25T01:29:23.912Z,9.07
2023-04-25T01:31:49.412Z,9.15
2023-04-25T01:34:14.605Z,8.63
2023-04-25T01:36:39.446Z,8.98
2023-04-25T01:39:06.056Z,9.10
2023-04-25T01:41:30.930Z,9.68
2023-04-25T01:43:55.693Z,8.95
2023-04-25T01:46:20.488Z,11.00
2023-04-25T01:48:45.341Z,10.20
2023-04-25T01:51:10.074Z,9.65
2023-04-25T01:53:34.897Z,10.52
2023-04-25T01:56:02.500Z,9.95
2023-04-25T01:58:31.685Z,9.82
2023-04-25T02:01:03.275Z,9.75
2023-04-25T02:03:37.092Z,10.27
2023-04-25T02:06:05.026Z,9.40
2023-04-25T02:08:32.438Z,9.23
2023-04-25T02:10:57.188Z,10.63
2023-04-25T02:13:25.035Z,10.13
2023-04-25T02:16:16.797Z,10.13
2023-04-25T02:18:41.597Z,9.77
2023-04-25T02:21:06.169Z,9.55
2023-04-25T02:23:31.541Z,9.40
2023-04-25T02:25:59.162Z,9.57
2023-04-25T02:28:26.962Z,10.55
2023-04-25T02:30:51.710Z,9.38
2023-04-25T02:33:18.031Z,10.55
2023-04-25T02:35:42.537Z,9.45
2023-04-25T02:38:07.415Z,9.43
2023-04-25T02:40:32.042Z,9.60
2023-04-25T02:42:56.692Z,10.32
2023-04-25T02:45:22.804Z,10.25
2023-04-25T02:47:49.042Z,10.82
2023-04-25T02:50:13.668Z,10.07
2023-04-25T02:52:39.324Z,10.30
2023-04-25T02:55:13.304Z,11.85
2023-04-25T02:57:38.072Z,9.95
2023-04-25T03:00:02.715Z,10.05
2023-04-25T03:02:31.594Z,10.48
2023-04-25T03:04:57.404Z,10.98
2023-04-25T03:07:21.976Z,10.88
2023-04-25T03:09:47.210Z,11.57
2023-04-25T03:12:11.802Z,10.57
2023-04-25T03:14:36.675Z,10.82
2023-04-25T03:17:01.472Z,10.52
2023-04-25T03:19:27.550Z,12.13
2023-04-25T03:21:52.481Z,12.35
2023-04-25T03:24:17.732Z,11.27
2023-04-25T03:26:42.331Z,11.32
2023-04-25T03:29:07.283Z,11.65
2023-04-25T03:31:33.539Z,10.95
2023-04-25T03:33:58.338Z,10.35
2023-04-25T03:36:24.535Z,11.05
2023-04-25T03:38:49.535Z,11.05
2023-04-25T03:41:15.379Z,12.10
2023-04-25T03:43:43.361Z,11.15
2023-04-25T03:46:10.896Z,11.40
2023-04-25T03:48:36.598Z,10.63
2023-04-25T03:51:01.672Z,11.50
2023-04-25T03:53:28.644Z,11.60
2023-04-25T03:56:19.341Z,10.90
2023-04-25T03:58:46.131Z,10.65
2023-04-25T04:01:12.591Z,11.75
2023-04-25T04:03:39.617Z,11.20
2023-04-25T04:06:05.470Z,11.77
2023-04-25T04:08:34.682Z,11.65
2023-04-25T04:11:00.041Z,13.10
2023-04-25T04:13:25.745Z,11.70
2023-04-25T04:15:51.786Z,12.02
2023-04-25T04:18:16.808Z,12.07
2023-04-25T04:20:41.393Z,12.40
2023-04-25T04:23:06.475Z,13.07
2023-04-25T04:25:32.467Z,12.57
2023-04-25T04:28:15.967Z,12.68
2023-04-25T04:30:53.646Z,12.00
2023-04-25T04:33:20.009Z,11.73
2023-04-25T04:35:49.675Z,12.00
2023-04-25T04:38:16.558Z,13.18
2023-04-25T04:40:42.903Z,13.77
2023-04-25T04:43:30.667Z,12.30
2023-04-25T04:46:06.869Z,13.20
2023-04-25T04:48:41.217Z,13.15
2023-04-25T04:51:08.809Z,13.50
2023-04-25T04:54:03.531Z,13.45
2023-04-25T04:56:58.550Z,13.65
2023-04-25T04:59:35.686Z,12.73
2023-04-25T05:02:07.506Z,13.55
2023-04-25T05:05:03.895Z,12.13
2023-04-25T05:07:48.876Z,12.93
2023-04-25T05:10:47.581Z,12.25
2023-04-25T05:13:32.087Z,12.25
2023-04-25T05:16:10.064Z,13.07
2023-04-25T05:18:52.821Z,13.45
2023-04-25T05:21:46.903Z,12.40
2023-04-25T05:24:36.258Z,13.25
2023-04-25T05:27:22.534Z,12.57
2023-04-25T05:30:17.644Z,14.02
2023-04-25T05:32:57.026Z,13.10
2023-04-25T05:35:22.147Z,13.93
2023-04-25T05:37:48.379Z,13.75
2023-04-25T05:40:16.320Z,13.82
2023-04-25T05:42:59.553Z,15.82
2023-04-25T05:45:25.924Z,14.77
2023-04-25T05:48:13.236Z,15.95
2023-04-25T05:51:13.059Z,16.17
2023-04-25T05:53:46.885Z,17.30
2023-04-25T05:56:17.179Z,16.23
2023-04-25T05:58:56.967Z,16.08
2023-04-25T06:01:23.531Z,18.23
2023-04-25T06:03:49.107Z,17.40
2023-04-25T06:06:17.781Z,17.42
2023-04-25T06:08:43.231Z,16.90
2023-04-25T06:11:10.127Z,17.17
2023-04-25T06:13:35.771Z,16.08
2023-04-25T06:16:01.332Z,15.75
2023-04-25T06:18:32.764Z,16.35
2023-04-25T06:23:24.456Z,16.50
2023-04-25T06:28:25.835Z,17.55
2023-04-25T06:30:51.420Z,18.45
2023-04-25T06:33:19.305Z,17.88
2023-04-25T06:35:50.329Z,17.25
2023-04-25T06:38:19.989Z,17.05
2023-04-25T06:40:48.993Z,19.23
2023-04-25T06:43:14.902Z,27.52
2023-04-25T06:45:48.986Z,21.40
2023-04-25T06:48:14.668Z,21.65
2023-04-25T06:50:39.477Z,25.45
2023-04-25T06:53:06.203Z,22.45
2023-04-25T06:55:31.564Z,18.23
2023-04-25T06:58:18.702Z,17.55
2023-04-25T07:01:00.860Z,16.80
2023-04-25T07:03:28.063Z,19.02
2023-04-25T07:05:59.565Z,18.65
2023-04-25T07:08:28.390Z,19.05
2023-04-25T07:10:53.288Z,19.10
2023-04-25T07:13:17.951Z,20.25
2023-04-25T07:15:43.292Z,20.17
2023-04-25T07:18:08.896Z,18.98
2023-04-25T07:20:34.011Z,18.52
2023-04-25T07:23:00.701Z,19.38
2023-04-25T07:25:26.971Z,20.85
2023-04-25T07:27:51.975Z,21.40
2023-04-25T07:30:19.427Z,23.55
2023-04-25T07:32:44.690Z,23.45
2023-04-25T07:35:10.301Z,22.15
2023-04-25T07:37:35.298Z,21.85
2023-04-25T07:40:29.079Z,22.52
2023-04-25T07:43:00.415Z,20.77
2023-04-25T07:45:32.593Z,20.67
2023-04-25T07:47:57.773Z,20.38
2023-04-25T07:50:22.754Z,21.77
2023-04-25T07:52:47.585Z,22.60
2023-04-25T07:55:34.284Z,22.15
2023-04-25T07:58:15.022Z,23.00
2023-04-25T08:00:42.776Z,24.60
2023-04-25T08:03:30.882Z,21.23
2023-04-25T08:05:56.917Z,22.13
2023-04-25T08:08:23.878Z,21.42
2023-04-25T08:10:51.187Z,22.13
2023-04-25T08:13:16.654Z,22.50
2023-04-25T08:15:41.978Z,22.48
2023-04-25T08:18:06.907Z,23.90
2023-04-25T08:20:32.646Z,22.20
2023-04-25T08:23:02.056Z,23.73
2023-04-25T08:25:45.286Z,24.58
2023-04-25T08:28:16.181Z,23.63
2023-04-25T08:30:41.998Z,24.00
2023-04-25T08:33:09.756Z,25.48
2023-04-25T08:35:48.918Z,24.23
2023-04-25T08:38:14.159Z,23.70
2023-04-25T08:40:41.839Z,24.33
2023-04-25T08:43:16.644Z,24.58
2023-04-25T08:45:43.713Z,25.10
2023-04-25T08:48:15.819Z,24.35
2023-04-25T08:50:42.100Z,24.20
2023-04-25T08:53:11.373Z,24.77
2023-04-25T08:55:36.596Z,24.70
2023-04-25T08:58:03.144Z,23.70
2023-04-25T09:00:30.253Z,24.45
2023-04-25T09:02:56.322Z,24.73
2023-04-25T09:05:21.921Z,25.55
2023-04-25T09:07:50.877Z,25.57
2023-04-25T09:10:15.904Z,26.27
2023-04-25T09:12:40.857Z,25.33
2023-04-25T09:15:09.949Z,23.77
2023-04-25T09:17:58.518Z,25.02
2023-04-25T09:20:28.758Z,26.23
2023-04-25T09:23:04.564Z,25.95
2023-04-25T09:25:37.090Z,24.75
2023-04-25T09:28:06.879Z,25.42
2023-04-25T09:30:32.885Z,24.92
2023-04-25T09:33:10.798Z,24.58
2023-04-25T09:35:41.360Z,24.58
2023-04-25T09:38:12.083Z,24.70
2023-04-25T09:40:56.734Z,25.25
2023-04-25T09:43:48.209Z,25.73
2023-04-25T09:46:15.026Z,25.30
2023-04-25T09:48:52.260Z,24.30
2023-04-25T09:51:29.162Z,24.20
2023-04-25T09:53:56.904Z,24.88
2023-04-25T09:56:39.247Z,24.80
2023-04-25T09:59:07.850Z,25.02
2023-04-25T10:01:37.281Z,23.25
2023-04-25T10:04:13.988Z,22.80
2023-04-25T10:06:48.472Z,22.73
2023-04-25T10:09:15.367Z,22.33
2023-04-25T10:11:41.973Z,23.08
2023-04-25T10:14:07.898Z,22.80
2023-04-25T10:16:33.167Z,23.50
2023-04-25T10:18:58.053Z,21.80
2023-04-25T10:21:24.564Z,19.60
2023-04-25T10:23:51.536Z,21.00
2023-04-25T10:26:17.918Z,22.08
2023-04-25T10:28:57.598Z,21.50
2023-04-25T10:31:22.313Z,24.23
2023-04-25T10:33:47.065Z,21.50
2023-04-25T10:36:13.283Z,23.45
2023-04-25T10:38:40.089Z,23.77
2023-04-25T10:41:06.450Z,24.90
2023-04-25T10:43:40.300Z,27.42
2023-04-25T10:46:14.930Z,26.13
2023-04-25T10:48:39.682Z,26.70
2023-04-25T10:51:10.740Z,29.83
2023-04-25T10:53:38.429Z,28.02
2023-04-25T10:56:14.391Z,29.20
2023-04-25T10:58:43.955Z,29.63
2023-04-25T11:01:09.740Z,31.35
2023-04-25T11:03:34.753Z,31.52
2023-04-25T11:05:59.712Z,31.20
2023-04-25T11:08:37.986Z,30.02
2023-04-25T11:11:05.503Z,30.02
2023-04-25T11:13:32.654Z,30.45
2023-04-25T11:16:07.185Z,29.35
2023-04-25T11:18:44.062Z,27.13
2023-04-25T11:21:09.151Z,25.17
2023-04-25T11:23:34.469Z,23.38
2023-04-25T11:26:02.356Z,22.42
2023-04-25T11:28:29.555Z,21.00
2023-04-25T11:30:54.466Z,20.98
2023-04-25T11:33:19.240Z,20.65
2023-04-25T11:35:44.180Z,19.60
2023-04-25T11:38:09.692Z,19.52
2023-04-25T11:40:34.915Z,17.35
2023-04-25T11:43:02.871Z,18.02
2023-04-25T11:45:31.849Z,16.42
2023-04-25T11:47:57.323Z,16.25
2023-04-25T11:50:22.237Z,15.23
2023-04-25T11:52:48.938Z,15.13
2023-04-25T11:55:16.799Z,14.68
2023-04-25T11:57:43.626Z,13.98
2023-04-25T12:00:16.757Z,13.65
2023-04-25T12:02:46.311Z,13.80
2023-04-25T12:05:30.592Z,12.88
2023-04-25T12:07:57.650Z,15.50
2023-04-25T12:10:23.103Z,17.02
2023-04-25T12:12:49.656Z,16.90
2023-04-25T12:15:18.362Z,16.25
2023-04-25T12:17:46.670Z,17.10
2023-04-25T12:20:14.492Z,18.13
2023-04-25T12:22:39.688Z,17.88
2023-04-25T12:25:05.181Z,19.75
2023-04-25T12:27:30.608Z,18.95
2023-04-25T12:29:56.918Z,20.65
2023-04-25T12:32:21.976Z,22.42
2023-04-25T12:34:48.184Z,22.17
2023-04-25T12:37:12.917Z,18.10
2023-04-25T12:39:37.581Z,16.50
2023-04-25T12:42:02.442Z,16.27
2023-04-25T12:44:26.917Z,17.05
2023-04-25T12:46:52.305Z,14.20
2023-04-25T12:49:19.356Z,9.48
2023-04-25T12:51:45.766Z,10.35
2023-04-25T12:54:11.103Z,12.13
2023-04-25T12:56:36.324Z,12.05
2023-04-25T12:59:01.331Z,11.65
2023-04-25T13:01:26.514Z,11.10
2023-04-25T13:03:52.262Z,13.38
2023-04-25T13:06:18.107Z,12.75
2023-04-25T13:08:44.192Z,13.05
2023-04-25T13:11:09.102Z,6.10
2023-04-25T13:13:35.356Z,6.40
2023-04-25T13:16:01.497Z,6.03
2023-04-25T13:18:27.593Z,6.47
2023-04-25T13:20:52.259Z,5.80
2023-04-25T13:23:16.947Z,6.10
2023-04-25T13:25:43.183Z,5.82
2023-04-25T13:28:08.061Z,5.88
2023-04-25T13:30:32.872Z,5.85
2023-04-25T13:33:01.680Z,5.95
2023-04-25T13:35:26.901Z,6.43
2023-04-25T13:37:52.172Z,7.07
2023-04-25T13:40:17.069Z,6.70
2023-04-25T13:42:45.301Z,6.47
2023-04-25T13:45:11.405Z,6.40
2023-04-25T13:47:37.679Z,7.68
2023-04-25T13:50:04.243Z,10.18
2023-04-25T13:52:31.211Z,10.07
2023-04-25T13:54:56.104Z,9.82
2023-04-25T13:57:23.200Z,9.73
2023-04-25T13:59:49.296Z,10.13
2023-04-25T14:02:14.136Z,9.48
2023-04-25T14:04:39.078Z,9.80
2023-04-25T14:07:04.616Z,9.15
2023-04-25T14:09:29.292Z,9.48
2023-04-25T14:11:54.395Z,7.60
2023-04-25T14:14:18.963Z,8.07
2023-04-25T14:16:45.475Z,6.20
2023-04-25T14:19:14.213Z,6.82
2023-04-25T14:21:38.898Z,6.28
2023-04-25T14:24:04.004Z,6.75
2023-04-25T14:26:28.527Z,6.80
2023-04-25T14:28:54.122Z,7.82
2023-04-25T14:31:19.150Z,6.90
2023-04-25T14:33:46.951Z,6.50
2023-04-25T14:36:12.264Z,6.07
2023-04-25T14:38:36.948Z,5.95
2023-04-25T14:41:01.969Z,4.50
2023-04-25T14:43:27.183Z,5.95
2023-04-25T14:45:53.301Z,5.28
2023-04-25T14:48:20.562Z,5.20
2023-04-25T14:50:46.892Z,5.47
2023-04-25T14:53:11.564Z,5.25
2023-04-25T14:55:37.217Z,6.00
2023-04-25T14:58:02.170Z,5.30
2023-04-25T15:00:27.812Z,5.70
2023-04-25T15:02:54.038Z,4.50
2023-04-25T15:05:18.932Z,4.22
2023-04-25T15:07:45.334Z,4.00
2023-04-25T15:10:14.667Z,5.10
2023-04-25T15:12:40.685Z,4.57
2023-04-25T15:15:06.810Z,4.40
2023-04-25T15:17:32.249Z,4.38
2023-04-25T15:19:56.896Z,4.38
2023-04-25T15:22:22.122Z,4.05
2023-04-25T15:24:47.970Z,3.55
2023-04-25T15:27:13.465Z,3.75
2023-04-25T15:29:38.087Z,3.85
2023-04-25T15:32:02.754Z,4.88
2023-04-25T15:34:27.292Z,5.25
2023-04-25T15:36:52.196Z,5.68
2023-04-25T15:39:16.728Z,5.38
2023-04-25T15:41:43.123Z,4.85
2023-04-25T15:44:08.766Z,4.80
2023-04-25T15:46:33.477Z,3.15
2023-04-25T15:48:58.287Z,2.30
2023-04-25T15:51:23.180Z,1.80
2023-04-25T15:53:47.712Z,1.55
2023-04-25T15:56:12.452Z,1.77
2023-04-25T15:58:38.408Z,1.67
2023-04-25T16:01:05.064Z,1.48
2023-04-25T16:03:29.826Z,1.67
2023-04-25T16:05:54.867Z,1.65
2023-04-25T16:08:19.380Z,1.48
2023-04-25T16:10:44.139Z,1.55
2023-04-25T16:13:08.765Z,1.67
2023-04-25T16:15:35.616Z,1.42
2023-04-25T16:18:00.482Z,1.70
2023-04-25T16:20:25.302Z,2.42
2023-04-25T16:22:49.933Z,2.03
2023-04-25T16:25:14.905Z,1.80
2023-04-25T16:27:39.910Z,2.00
2023-04-25T16:30:05.609Z,2.20
2023-04-25T16:32:31.867Z,1.85
2023-04-25T16:34:58.832Z,1.73
2023-04-25T16:37:25.300Z,2.22
2023-04-25T16:39:49.948Z,1.92
2023-04-25T16:42:14.743Z,1.88
2023-04-25T16:44:39.543Z,1.90
2023-04-25T16:47:05.185Z,1.48
2023-04-25T16:49:31.503Z,2.22
2023-04-25T16:51:56.256Z,1.48
2023-04-25T16:54:20.913Z,1.83
2023-04-25T16:56:45.620Z,2.00
2023-04-25T16:59:12.065Z,1.77
2023-04-25T17:01:37.462Z,2.05
2023-04-25T17:04:02.636Z,2.92
2023-04-25T17:06:31.212Z,2.17
2023-04-25T17:08:55.904Z,2.45
2023-04-25T17:11:20.828Z,2.40
2023-04-25T17:13:46.044Z,3.25
2023-04-25T17:16:13.690Z,2.60
2023-04-25T17:18:39.060Z,2.80
2023-04-25T17:21:06.103Z,2.45
2023-04-25T17:23:35.133Z,2.85
2023-04-25T17:26:03.035Z,2.42
2023-04-25T17:28:27.630Z,2.63
2023-04-25T17:30:53.125Z,2.25
2023-04-25T17:33:18.413Z,2.65
2023-04-25T17:35:42.979Z,2.25
2023-04-25T17:38:08.087Z,2.50
2023-04-25T17:40:34.552Z,2.58
2023-04-25T17:42:59.402Z,3.03
2023-04-25T17:45:24.592Z,3.30
2023-04-25T17:47:49.323Z,3.38
2023-04-25T17:50:16.678Z,3.38
2023-04-25T17:52:48.392Z,3.65
2023-04-25T17:55:13.187Z,3.35
2023-04-25T17:57:39.175Z,3.83
2023-04-25T18:00:05.886Z,3.92
2023-04-25T18:02:38.700Z,4.00
2023-04-25T18:05:09.380Z,4.00
2023-04-25T18:07:34.469Z,4.20
2023-04-25T18:09:59.540Z,3.80
2023-04-25T18:12:26.186Z,3.97
2023-04-25T18:14:53.714Z,4.60
2023-04-25T18:17:18.690Z,3.90
2023-04-25T18:19:43.320Z,4.70
2023-04-25T18:22:08.017Z,4.32
2023-04-25T18:24:34.515Z,4.63
2023-04-25T18:27:01.448Z,4.85
2023-04-25T18:29:33.124Z,3.95
2023-04-25T18:32:01.385Z,4.53
2023-04-25T18:34:34.477Z,4.07
2023-04-25T18:37:09.372Z,4.40
2023-04-25T18:39:34.320Z,4.13
2023-04-25T18:42:05.891Z,5.07
2023-04-25T18:44:33.977Z,5.00
2023-04-25T18:47:00.993Z,5.57
2023-04-25T18:49:26.714Z,5.78
2023-04-25T18:51:56.333Z,5.65
2023-04-25T18:54:21.104Z,6.43
2023-04-25T18:56:49.849Z,6.68
2023-04-25T18:59:21.917Z,5.43
2023-04-25T19:04:30.692Z,6.30
2023-04-25T19:07:17.083Z,7.20
2023-04-25T19:09:42.417Z,6.97
2023-04-25T19:12:07.644Z,6.07
2023-04-25T19:14:35.025Z,7.00
2023-04-25T19:17:00.834Z,7.65
2023-04-25T19:19:26.128Z,6.65
2023-04-25T19:21:54.379Z,7.90
2023-04-25T19:24:19.104Z,8.30
2023-04-25T19:26:47.178Z,7.53
2023-04-25T19:29:15.757Z,8.13
2023-04-25T19:31:44.328Z,8.10
2023-04-25T19:34:13.335Z,8.48
2023-04-25T19:36:49.048Z,8.85
2023-04-25T19:39:25.020Z,8.02
2023-04-25T19:41:50.208Z,8.98
2023-04-25T19:44:16.796Z,9.63
2023-04-25T19:46:42.842Z,9.00
2023-04-25T19:49:10.724Z,9.57
2023-04-25T19:51:42.032Z,9.65
2023-04-25T19:54:22.146Z,8.82
2023-04-25T19:56:52.130Z,9.05
2023-04-25T19:59:17.208Z,8.73
2023-04-25T20:01:48.297Z,9.98
2023-04-25T20:04:21.653Z,9.88
2023-04-25T20:06:46.538Z,9.43
2023-04-25T20:09:11.935Z,10.00
2023-04-25T20:11:37.214Z,10.70
2023-04-25T20:14:06.563Z,10.10
2023-04-25T20:16:42.459Z,10.00
2023-04-25T20:19:39.141Z,10.63
2023-04-25T20:22:30.013Z,10.95
2023-04-25T20:24:54.728Z,10.50
2023-04-25T20:27:19.506Z,11.32
2023-04-25T20:30:14.128Z,11.52
2023-04-25T20:32:40.883Z,11.98
2023-04-25T20:35:07.334Z,12.80
2023-04-25T20:37:32.809Z,11.45
2023-04-25T20:39:57.493Z,12.23
2023-04-25T20:42:23.054Z,11.85
2023-04-25T20:44:49.253Z,12.73
2023-04-25T20:47:14.595Z,12.82
2023-04-25T20:49:40.697Z,13.68
2023-04-25T20:52:06.326Z,13.15
2023-04-25T20:54:32.196Z,13.40
2023-04-25T20:56:57.645Z,13.65
2023-04-25T20:59:22.195Z,13.32
2023-04-25T21:01:48.896Z,14.13
2023-04-25T21:04:15.839Z,14.73
2023-04-25T21:06:43.051Z,13.77
2023-04-25T21:09:10.078Z,14.68
2023-04-25T21:11:35.740Z,14.27
2023-04-25T21:14:00.683Z,14.00
2023-04-25T21:16:25.384Z,15.00
2023-04-25T21:18:50.160Z,15.10
2023-04-25T21:21:14.993Z,15.57
2023-04-25T21:23:43.793Z,16.48
2023-04-25T21:26:09.743Z,14.25
2023-04-25T21:28:34.388Z,15.40
2023-04-25T21:30:59.419Z,15.15
2023-04-25T21:33:24.219Z,15.23
2023-04-25T21:35:48.968Z,15.65
2023-04-25T21:38:14.976Z,16.17
2023-04-25T21:40:41.962Z,16.60
2023-04-25T21:43:10.121Z,15.43
2023-04-25T21:45:44.589Z,16.10
2023-04-25T21:48:20.069Z,15.55
2023-04-25T21:50:44.926Z,14.85
2023-04-25T21:53:11.119Z,15.30
2023-04-25T21:55:35.621Z,15.15
2023-04-25T21:58:01.580Z,14.10
2023-04-25T22:00:28.771Z,14.15
2023-04-25T22:02:54.130Z,14.77
2023-04-25T22:05:20.596Z,13.43
2023-04-25T22:07:45.570Z,13.93
2023-04-25T22:10:11.016Z,13.73
2023-04-25T22:12:35.881Z,13.77
2023-04-25T22:15:07.408Z,13.52
2023-04-25T22:17:35.630Z,13.90
2023-04-25T22:20:00.458Z,13.10
2023-04-25T22:22:25.082Z,13.65
2023-04-25T22:24:50.017Z,13.68
2023-04-25T22:27:14.757Z,13.68
2023-04-25T22:29:39.393Z,13.38
2023-04-25T22:32:05.338Z,13.20
2023-04-25T22:34:30.046Z,14.82
2023-04-25T22:36:55.303Z,13.40
2023-04-25T22:39:22.411Z,14.68
2023-04-25T22:41:47.695Z,13.35
2023-04-25T22:44:12.321Z,14.30
2023-04-25T22:46:36.980Z,13.13
2023-04-25T22:49:06.082Z,13.63
2023-04-25T22:51:31.166Z,12.98
2023-04-25T22:53:56.360Z,13.75
2023-04-25T22:56:20.991Z,14.18
2023-04-25T22:58:46.439Z,13.15
2023-04-25T23:01:11.578Z,14.73
2023-04-25T23:03:37.426Z,14.40
2023-04-25T23:06:04.047Z,14.93
2023-04-25T23:08:29.151Z,14.50
2023-04-25T23:10:53.814Z,14.20
2023-04-25T23:13:18.591Z,14.60
2023-04-25T23:15:43.475Z,14.40
2023-04-25T23:18:09.041Z,13.35
2023-04-25T23:20:34.247Z,14.90
2023-04-25T23:23:00.413Z,14.32
2023-04-25T23:25:41.262Z,13.35
2023-04-25T23:28:08.321Z,13.88
2023-04-25T23:30:32.893Z,14.05
2023-04-25T23:32:59.176Z,13.88
2023-04-25T23:35:24.354Z,14.32
2023-04-25T23:37:49.424Z,14.70
2023-04-25T23:40:15.769Z,14.98
2023-04-25T23:42:41.742Z,15.48
2023-04-25T23:45:09.076Z,15.75
2023-04-25T23:47:33.898Z,13.82
2023-04-25T23:49:58.800Z,14.80
2023-04-25T23:52:23.680Z,14.55
2023-04-25T23:54:48.542Z,14.90
2023-04-25T23:57:14.705Z,13.73
2023-04-25T23:59:42.366Z,14.80
